createdAt,value
2022-10-02T00:02:55.325Z,3.53
2022-10-02T00:09:54.533Z,2.95
2022-10-02T00:16:46.090Z,3.22
2022-10-02T00:23:39.787Z,3.72
2022-10-02T00:30:22.386Z,3.40
2022-10-02T00:37:31.729Z,2.92
2022-10-02T00:44:26.000Z,2.95
2022-10-02T00:51:20.277Z,2.70
2022-10-02T00:58:21.054Z,3.15
2022-10-02T01:05:07.582Z,3.70
2022-10-02T01:11:51.004Z,4.25
2022-10-02T01:18:33.554Z,4.57
2022-10-02T01:25:16.037Z,4.03
2022-10-02T01:31:58.407Z,4.13
2022-10-02T01:38:41.949Z,3.85
2022-10-02T01:45:39.351Z,3.08
2022-10-02T01:52:53.572Z,5.85
2022-10-02T01:59:35.995Z,5.82
2022-10-02T02:06:29.191Z,3.05
2022-10-02T02:13:51.039Z,2.55
2022-10-02T02:20:39.829Z,2.22
2022-10-02T02:27:26.459Z,3.00
2022-10-02T02:34:13.318Z,2.42
2022-10-02T02:41:03.121Z,2.45
2022-10-02T02:47:50.503Z,2.40
2022-10-02T02:54:42.660Z,2.33
2022-10-02T03:01:25.158Z,2.50
2022-10-02T03:08:31.487Z,2.30
2022-10-02T03:15:29.421Z,2.47
2022-10-02T03:22:36.290Z,2.88
2022-10-02T03:29:26.743Z,2.25
2022-10-02T03:36:11.869Z,2.47
2022-10-02T03:42:58.211Z,2.42
2022-10-02T03:49:40.820Z,2.35
2022-10-02T03:56:41.473Z,2.55
2022-10-02T04:03:27.951Z,2.83
2022-10-02T04:10:13.329Z,2.72
2022-10-02T04:17:09.904Z,2.90
2022-10-02T04:24:06.801Z,2.90
2022-10-02T04:30:53.194Z,2.58
2022-10-02T04:37:45.843Z,2.70
2022-10-02T04:44:30.610Z,2.83
2022-10-02T04:51:20.311Z,2.83
2022-10-02T04:58:24.797Z,3.15
2022-10-02T05:05:26.021Z,2.47
2022-10-02T05:12:32.147Z,2.90
2022-10-02T05:19:51.243Z,2.80
2022-10-02T05:26:46.415Z,2.90
2022-10-02T05:33:38.157Z,2.78
2022-10-02T05:40:28.095Z,6.72
2022-10-02T05:47:33.063Z,3.50
2022-10-02T05:54:52.479Z,2.95
2022-10-02T06:01:39.613Z,3.38
2022-10-02T06:08:36.774Z,3.03
2022-10-02T06:15:31.906Z,2.80
2022-10-02T06:22:21.478Z,3.45
2022-10-02T06:29:18.663Z,3.42
2022-10-02T06:36:48.443Z,3.13
2022-10-02T06:43:43.914Z,4.05
2022-10-02T06:50:56.392Z,4.07
2022-10-02T06:58:08.840Z,3.45
2022-10-02T07:05:17.974Z,3.13
2022-10-02T07:12:28.274Z,3.60
2022-10-02T07:19:31.717Z,3.47
2022-10-02T07:26:19.510Z,3.55
2022-10-02T07:33:21.011Z,3.40
2022-10-02T07:40:22.310Z,3.13
2022-10-02T07:47:28.627Z,3.58
2022-10-02T07:54:48.769Z,3.60
2022-10-02T08:01:36.393Z,4.20
2022-10-02T08:08:27.774Z,4.78
2022-10-02T08:15:17.641Z,4.00
2022-10-02T08:22:23.586Z,3.95
2022-10-02T08:29:31.062Z,2.83
2022-10-02T08:36:53.064Z,3.42
2022-10-02T08:43:56.870Z,3.45
2022-10-02T08:51:15.312Z,2.85
2022-10-02T08:58:35.344Z,2.90
2022-10-02T09:05:29.943Z,2.63
2022-10-02T09:12:37.754Z,2.80
2022-10-02T09:19:44.736Z,2.78
2022-10-02T09:26:34.594Z,2.75
2022-10-02T09:33:44.696Z,2.80
2022-10-02T09:41:01.342Z,2.97
2022-10-02T09:48:10.078Z,2.22
2022-10-02T09:55:23.325Z,2.67
2022-10-02T10:02:29.005Z,2.72
2022-10-02T10:09:40.371Z,3.08
2022-10-02T10:16:53.919Z,2.92
2022-10-02T10:23:51.095Z,2.92
2022-10-02T10:30:46.633Z,2.53
2022-10-02T10:38:26.802Z,2.40
2022-10-02T10:45:18.358Z,2.55
2022-10-02T10:52:03.781Z,2.40
2022-10-02T10:58:52.941Z,2.25
2022-10-02T11:06:03.532Z,1.88
2022-10-02T11:13:14.509Z,1.90
2022-10-02T11:20:40.307Z,1.80
2022-10-02T11:28:02.005Z,1.70
2022-10-02T11:35:07.749Z,1.65
2022-10-02T11:42:10.219Z,2.40
2022-10-02T11:49:22.836Z,1.58
2022-10-02T11:56:22.294Z,1.38
2022-10-02T12:03:36.385Z,1.50
2022-10-02T12:10:30.710Z,1.10
2022-10-02T12:17:34.855Z,1.60
2022-10-02T12:25:02.480Z,1.13
2022-10-02T12:32:01.974Z,1.30
2022-10-02T12:39:11.836Z,1.20
2022-10-02T12:46:22.165Z,1.10
2022-10-02T12:53:36.048Z,1.30
2022-10-02T13:00:21.451Z,1.10
2022-10-02T13:07:16.264Z,1.20
2022-10-02T13:14:28.271Z,1.90
2022-10-02T13:21:55.640Z,1.67
2022-10-02T13:29:19.708Z,1.55
2022-10-02T13:36:15.335Z,1.30
2022-10-02T13:43:17.655Z,1.25
2022-10-02T13:50:27.728Z,1.17
2022-10-02T13:57:18.975Z,1.20
2022-10-02T14:04:23.598Z,1.63
2022-10-02T14:11:43.527Z,1.40
2022-10-02T14:18:55.363Z,1.20
2022-10-02T14:26:06.193Z,1.98
2022-10-02T14:32:58.351Z,1.30
2022-10-02T14:39:42.381Z,1.60
2022-10-02T14:46:35.920Z,1.30
2022-10-02T14:53:44.933Z,1.20
2022-10-02T15:00:43.079Z,1.40
2022-10-02T15:07:28.232Z,1.70
2022-10-02T15:14:37.618Z,1.25
2022-10-02T15:21:48.508Z,1.42
2022-10-02T15:28:50.625Z,1.27
2022-10-02T15:36:08.228Z,1.48
2022-10-02T15:43:02.577Z,1.33
2022-10-02T15:50:05.725Z,1.15
2022-10-02T15:57:15.541Z,1.50
2022-10-02T16:04:44.007Z,1.48
2022-10-02T16:12:01.213Z,2.08
2022-10-02T16:19:40.171Z,1.98
2022-10-02T16:26:44.027Z,1.40
2022-10-02T16:33:57.903Z,3.15
2022-10-02T16:40:58.473Z,2.63
2022-10-02T16:48:00.486Z,2.60
2022-10-02T16:54:47.095Z,2.20
2022-10-02T17:01:53.313Z,2.35
2022-10-02T17:08:53.731Z,2.72
2022-10-02T17:15:49.455Z,5.03
2022-10-02T17:23:03.067Z,6.07
2022-10-02T17:29:56.819Z,5.68
2022-10-02T17:36:58.971Z,4.18
2022-10-02T17:44:02.589Z,4.53
2022-10-02T17:51:31.270Z,3.58
2022-10-02T17:58:44.008Z,3.95
2022-10-02T18:05:29.842Z,3.58
2022-10-02T18:12:18.504Z,3.20
2022-10-02T18:19:27.716Z,3.53
2022-10-02T18:26:31.401Z,3.40
2022-10-02T18:33:43.476Z,3.30
2022-10-02T18:40:30.322Z,6.65
2022-10-02T18:47:31.656Z,2.60
2022-10-02T18:54:34.326Z,2.33
2022-10-02T19:01:39.977Z,4.60
2022-10-02T19:09:00.059Z,4.32
2022-10-02T19:15:45.069Z,2.95
2022-10-02T19:22:38.291Z,2.95
2022-10-02T19:29:41.675Z,3.20
2022-10-02T19:36:26.656Z,4.00
2022-10-02T19:43:25.491Z,4.32
2022-10-02T19:50:24.295Z,5.65
2022-10-02T19:57:14.742Z,4.57
2022-10-02T20:04:02.630Z,5.10
2022-10-02T20:11:15.615Z,4.32
2022-10-02T20:17:58.236Z,8.35
2022-10-02T20:24:56.190Z,6.70
2022-10-02T20:31:49.005Z,6.43
2022-10-02T20:38:52.123Z,6.97
2022-10-02T20:45:46.958Z,7.05
2022-10-02T20:52:52.213Z,7.30
2022-10-02T21:00:09.170Z,7.63
2022-10-02T21:07:13.927Z,7.05
2022-10-02T21:14:25.207Z,6.28
2022-10-02T21:21:33.416Z,6.70
2022-10-02T21:28:22.271Z,5.53
2022-10-02T21:35:16.543Z,6.35
2022-10-02T21:42:15.688Z,5.60
2022-10-02T21:49:14.475Z,6.55
2022-10-02T21:56:08.737Z,6.38
2022-10-02T22:02:59.081Z,6.32
2022-10-02T22:09:50.525Z,6.43
2022-10-02T22:16:52.304Z,7.22
2022-10-02T22:23:59.613Z,5.38
2022-10-02T22:31:11.241Z,4.93
2022-10-02T22:38:18.975Z,5.38
2022-10-02T22:45:13.498Z,5.40
2022-10-02T22:52:25.180Z,5.60
2022-10-02T22:59:37.864Z,6.82
2022-10-02T23:06:31.376Z,4.70
2022-10-02T23:13:26.379Z,4.00
2022-10-02T23:20:39.468Z,3.33
2022-10-02T23:27:52.063Z,3.83
2022-10-02T23:34:44.994Z,4.57
2022-10-02T23:41:40.751Z,6.22
2022-10-02T23:48:23.854Z,6.80
2022-10-02T23:55:29.004Z,7.95
